Aeroporto :







RITROVATECI SU...

 
LOGIN :

Iscrizione | Disclaimer

   EN    FR    IT 

 









Sommario :    VFR   VFR Marginale   IFR   IFR Intensivo   IFR Molto Intensivo
Visibilità : 
Base nubi : 
>= 8 km
>= 3000ft
5 / 8 km
1000 / 3000 ft
1500m / 5 km
500 / 1000 ft
800 / 1500m
200 / 500 ft
< 800m
< 200 ft
Simboli :   Temporali  Nebbia  Neve Forte  Precipitazioni Forti  Vento > 20 kt






- Altitudine del aeroporto : 38 ft
- Codice IATA : YMH


CYMH - Mary's Harbour

ULTIMO METAR :
  • 250000Z AUTO 25006KT 9SM FEW120 19/11 A3005 RMK SLP180 DENSITY ALT 400FT

METARs OBSOLETI :
  • 242300Z AUTO 24006KT 9SM SCT096 SCT120 20/12 A3004 RMK SLP175 DENSITY ALT 500FT
  • 242200Z AUTO VRB05KT 9SM BKN086 BKN100 BKN120 20/11 A3004 RMK SLP174 DENSITY ALT 500FT
  • 242100Z AUTO 25008KT 210V280 9SM BKN110 BKN130 23/08 A3002 RMK SLP168 DENSITY ALT 900FT
  • 242000Z AUTO 28012G17KT 9SM FEW076 SCT130 24/07 A3003 RMK SLP171 DENSITY ALT 1000FT

TAF TAF CYMH
Valido dal 24 a 20 ore il 25 a 03 ore UTC


241940Z 2420/2503 30012G22KT P6SM BKN080
TEMPO 2420/2503 P6SM -SHRA
BECMG 2423/2501 25008KT RMK FCST BASED ON AUTO OBS. NXT FCST BY 250900Z
FIR CZQX / America del Nord



MetMap, La meteo Aeronautica in un colpo d'occhio ! - Copyright ORBIFLY Dicembre 2007 - Disclaimer

ORBIFLY MET'MAP TEAM :

Programmazione e sviluppo : Alexandra Zaïnal
Concezione : Baudouin d'Aumeries
Supporto tecnico e logistico : Manuel Goepfert
Aiuto : Marc-Olivier Méhu
Aiuto per la traduzione : Arnaldo La Scala




FONTI E CREDITI :

   NOAA